createdAt,value
2023-05-16T00:00:48.415Z,101211.91
2023-05-16T00:01:42.101Z,101203.97
2023-05-16T00:02:33.889Z,101204.84
2023-05-16T00:03:26.331Z,101207.44
2023-05-16T00:04:18.089Z,101198.72
2023-05-16T00:05:14.681Z,101203.91
2023-05-16T00:06:07.562Z,101205.69
2023-05-16T00:07:01.321Z,101209.13
2023-05-16T00:07:52.719Z,101205.53
2023-05-16T00:08:44.165Z,101202.06
2023-05-16T00:09:35.611Z,101213.25
2023-05-16T00:10:27.450Z,101206.28
2023-05-16T00:11:21.677Z,101201.97
2023-05-16T00:12:13.355Z,101208.13
2023-05-16T00:13:06.113Z,101206.28
2023-05-16T00:13:57.776Z,101207.16
2023-05-16T00:14:50.244Z,101210.63
2023-05-16T00:15:44.167Z,101205.41
2023-05-16T00:16:38.125Z,101214.91
2023-05-16T00:17:29.709Z,101207.84
2023-05-16T00:18:22.932Z,101213.88
2023-05-16T00:19:15.345Z,101203.41
2023-05-16T00:20:11.129Z,101205.91
2023-05-16T00:21:03.572Z,101207.69
2023-05-16T00:21:55.190Z,101206.94
2023-05-16T00:22:47.085Z,101208.75
2023-05-16T00:23:40.706Z,101199.13
2023-05-16T00:24:35.653Z,101209.44
2023-05-16T00:25:29.963Z,101203.19
2023-05-16T00:26:21.619Z,101205.91
2023-05-16T00:27:13.084Z,101215.53
2023-05-16T00:28:10.029Z,101202.44
2023-05-16T00:29:02.364Z,101203.38
2023-05-16T00:29:56.117Z,101204.06
2023-05-16T00:30:49.500Z,101205.81
2023-05-16T00:31:42.444Z,101206.63
2023-05-16T00:32:34.306Z,101198.75
2023-05-16T00:33:25.806Z,101203.97
2023-05-16T00:34:17.604Z,101208.19
2023-05-16T00:35:11.442Z,101209.09
2023-05-16T00:36:02.918Z,101206.50
2023-05-16T00:36:54.331Z,101202.19
2023-05-16T00:37:46.056Z,101203.03
2023-05-16T00:38:37.598Z,101205.66
2023-05-16T00:39:29.330Z,101202.97
2023-05-16T00:40:21.392Z,101204.72
2023-05-16T00:41:15.406Z,101210.94
2023-05-16T00:42:08.991Z,101198.66
2023-05-16T00:43:00.569Z,101208.25
2023-05-16T00:43:52.104Z,101199.53
2023-05-16T00:44:43.563Z,101205.63
2023-05-16T00:45:37.211Z,101200.28
2023-05-16T00:46:28.651Z,101194.31
2023-05-16T00:47:22.859Z,101196.94
2023-05-16T00:48:15.886Z,101200.47
2023-05-16T00:49:08.709Z,101192.63
2023-05-16T00:50:04.002Z,101203.03
2023-05-16T00:50:56.088Z,101202.13
2023-05-16T00:51:48.330Z,101200.47
2023-05-16T00:52:42.806Z,101194.41
2023-05-16T00:53:34.212Z,101198.66
2023-05-16T00:54:28.799Z,101199.66
2023-05-16T00:55:22.685Z,101192.72
2023-05-16T00:56:14.217Z,101211.09
2023-05-16T00:57:06.743Z,101200.53
2023-05-16T00:57:59.760Z,101202.25
2023-05-16T00:58:51.695Z,101199.59
2023-05-16T00:59:46.423Z,101199.44
2023-05-16T01:00:37.957Z,101202.00
2023-05-16T01:01:30.274Z,101200.25
2023-05-16T01:02:21.916Z,101199.41
2023-05-16T01:03:13.511Z,101205.56
2023-05-16T01:04:06.009Z,101206.38
2023-05-16T01:04:59.572Z,101200.16
2023-05-16T01:05:51.706Z,101200.19
2023-05-16T01:06:44.072Z,101213.16
2023-05-16T01:07:35.959Z,101205.31
2023-05-16T01:08:27.542Z,101203.50
2023-05-16T01:09:19.493Z,101199.97
2023-05-16T01:10:11.866Z,101212.16
2023-05-16T01:11:21.798Z,101204.28
2023-05-16T01:12:23.901Z,101203.34
2023-05-16T01:13:44.767Z,101218.91
2023-05-16T01:14:56.656Z,101211.78
2023-05-16T01:16:03.090Z,101208.28
2023-05-16T01:17:11.220Z,101216.16
2023-05-16T01:18:06.352Z,101218.75
2023-05-16T01:19:21.509Z,101216.06
2023-05-16T01:20:40.492Z,101217.81
2023-05-16T01:21:52.943Z,101208.25
2023-05-16T01:23:00.137Z,101215.16
2023-05-16T01:24:19.328Z,101216.81
2023-05-16T01:25:45.432Z,101218.47
2023-05-16T01:26:38.817Z,101216.50
2023-05-16T01:27:32.302Z,101214.56
2023-05-16T01:28:25.946Z,101218.09
2023-05-16T01:29:22.711Z,101229.34
2023-05-16T01:30:17.214Z,101222.38
2023-05-16T01:31:08.817Z,101220.53
2023-05-16T01:32:00.590Z,101220.53
2023-05-16T01:32:55.214Z,101226.56
2023-05-16T01:33:47.492Z,101221.28
2023-05-16T01:34:39.010Z,101226.53
2023-05-16T01:35:31.825Z,101224.59
2023-05-16T01:36:48.016Z,101224.59
2023-05-16T01:37:48.677Z,101226.34
2023-05-16T01:39:14.739Z,101223.75
2023-05-16T01:40:22.193Z,101222.81
2023-05-16T01:41:39.642Z,101226.06
2023-05-16T01:42:37.102Z,101234.03
2023-05-16T01:43:43.928Z,101227.84
2023-05-16T01:44:43.758Z,101235.63
2023-05-16T01:45:42.015Z,101237.38
2023-05-16T01:46:41.442Z,101239.91
2023-05-16T01:47:40.002Z,101234.75
2023-05-16T01:48:42.210Z,101246.00
2023-05-16T01:49:44.046Z,101251.84
2023-05-16T01:50:43.384Z,101244.09
2023-05-16T01:51:41.737Z,101246.59
2023-05-16T01:52:58.487Z,101246.44
2023-05-16T01:53:57.034Z,101248.84
2023-05-16T01:54:54.498Z,101265.19
2023-05-16T01:55:56.095Z,101256.63
2023-05-16T01:56:53.523Z,101246.97
2023-05-16T01:57:46.028Z,101262.53
2023-05-16T01:58:39.127Z,101254.56
2023-05-16T01:59:31.946Z,101255.31
2023-05-16T02:00:23.753Z,101256.16
2023-05-16T02:01:15.420Z,101259.50
2023-05-16T02:02:06.987Z,101259.56
2023-05-16T02:02:59.103Z,101267.28
2023-05-16T02:03:51.628Z,101259.38
2023-05-16T02:04:44.419Z,101267.97
2023-05-16T02:05:38.498Z,101260.06
2023-05-16T02:06:32.624Z,101255.75
2023-05-16T02:07:24.395Z,101266.94
2023-05-16T02:08:18.397Z,101267.78
2023-05-16T02:09:10.030Z,101266.09
2023-05-16T02:10:06.100Z,101266.81
2023-05-16T02:11:00.095Z,101266.00
2023-05-16T02:11:51.605Z,101259.94
2023-05-16T02:12:43.120Z,101265.97
2023-05-16T02:13:35.397Z,101267.50
2023-05-16T02:14:28.285Z,101272.81
2023-05-16T02:15:21.203Z,101264.78
2023-05-16T02:16:13.505Z,101268.31
2023-05-16T02:17:06.131Z,101276.81
2023-05-16T02:18:00.024Z,101277.63
2023-05-16T02:18:51.574Z,101284.50
2023-05-16T02:19:43.093Z,101277.53
2023-05-16T02:20:37.028Z,101278.38
2023-05-16T02:21:28.502Z,101278.31
2023-05-16T02:22:20.007Z,101278.97
2023-05-16T02:23:14.302Z,101278.16
2023-05-16T02:24:06.221Z,101283.19
2023-05-16T02:24:57.635Z,101276.50
2023-05-16T02:25:49.098Z,101281.69
2023-05-16T02:26:40.687Z,101280.66
2023-05-16T02:27:32.769Z,101287.66
2023-05-16T02:28:24.188Z,101290.94
2023-05-16T02:29:16.775Z,101282.25
2023-05-16T02:30:09.798Z,101286.59
2023-05-16T02:31:01.613Z,101295.03
2023-05-16T02:31:53.030Z,101294.06
2023-05-16T02:32:45.074Z,101307.78
2023-05-16T02:33:37.277Z,101299.06
2023-05-16T02:34:29.956Z,101310.09
2023-05-16T02:35:21.561Z,101298.78
2023-05-16T02:36:13.034Z,101316.84
2023-05-16T02:37:05.219Z,101302.19
2023-05-16T02:37:57.046Z,101309.19
2023-05-16T02:38:51.917Z,101304.84
2023-05-16T02:39:43.334Z,101312.47
2023-05-16T02:40:34.946Z,101314.25
2023-05-16T02:41:27.801Z,101315.78
2023-05-16T02:42:21.686Z,101316.44
2023-05-16T02:43:13.513Z,101320.75
2023-05-16T02:44:06.749Z,101311.00
2023-05-16T02:44:58.195Z,101315.19
2023-05-16T02:45:49.676Z,101320.50
2023-05-16T02:46:41.964Z,101310.97
2023-05-16T02:47:37.194Z,101314.38
2023-05-16T02:48:28.669Z,101324.78
2023-05-16T02:49:20.104Z,101316.84
2023-05-16T02:50:11.493Z,101317.66
2023-05-16T02:51:02.999Z,101327.03
2023-05-16T02:51:54.537Z,101329.63
2023-05-16T02:52:47.168Z,101330.31
2023-05-16T02:53:38.631Z,101334.81
2023-05-16T02:54:32.431Z,101341.75
2023-05-16T02:55:27.808Z,101325.06
2023-05-16T02:56:19.868Z,101337.97
2023-05-16T02:57:12.068Z,101333.72
2023-05-16T02:58:03.577Z,101335.38
2023-05-16T02:58:56.254Z,101342.38
2023-05-16T02:59:47.713Z,101337.06
2023-05-16T03:00:39.122Z,101347.53
2023-05-16T03:01:31.195Z,101348.09
2023-05-16T03:02:23.264Z,101352.38
2023-05-16T03:03:14.803Z,101356.50
2023-05-16T03:04:06.540Z,101349.63
2023-05-16T03:04:58.653Z,101353.06
2023-05-16T03:05:50.324Z,101343.59
2023-05-16T03:06:41.908Z,101342.22
2023-05-16T03:07:33.507Z,101347.97
2023-05-16T03:08:24.950Z,101356.69
2023-05-16T03:09:16.997Z,101355.78
2023-05-16T03:10:08.878Z,101349.53
2023-05-16T03:11:03.483Z,101357.38
2023-05-16T03:11:54.939Z,101356.50
2023-05-16T03:12:46.450Z,101350.31
2023-05-16T03:13:40.132Z,101361.63
2023-05-16T03:14:31.647Z,101366.94
2023-05-16T03:15:23.125Z,101353.91
2023-05-16T03:16:15.668Z,101354.66
2023-05-16T03:17:07.411Z,101356.38
2023-05-16T03:18:02.053Z,101352.91
2023-05-16T03:18:54.983Z,101361.63
2023-05-16T03:19:46.838Z,101363.44
2023-05-16T03:20:38.509Z,101358.22
2023-05-16T03:21:29.941Z,101361.75
2023-05-16T03:22:21.336Z,101361.78
2023-05-16T03:23:13.168Z,101361.66
2023-05-16T03:24:05.141Z,101361.66
2023-05-16T03:24:57.753Z,101357.38
2023-05-16T03:25:49.526Z,101366.81
2023-05-16T03:26:45.504Z,101360.81
2023-05-16T03:27:36.884Z,101372.03
2023-05-16T03:28:30.759Z,101368.56
2023-05-16T03:29:22.543Z,101361.75
2023-05-16T03:30:14.544Z,101374.16
2023-05-16T03:31:06.076Z,101359.16
2023-05-16T03:31:57.804Z,101359.91
2023-05-16T03:32:49.333Z,101366.03
2023-05-16T03:33:40.810Z,101361.75
2023-05-16T03:34:32.193Z,101365.22
2023-05-16T03:35:24.558Z,101371.47
2023-05-16T03:36:16.535Z,101365.28
2023-05-16T03:37:08.453Z,101365.41
2023-05-16T03:37:59.995Z,101366.16
2023-05-16T03:38:51.778Z,101373.19
2023-05-16T03:39:45.214Z,101369.66
2023-05-16T03:40:37.036Z,101372.25
2023-05-16T03:41:28.642Z,101373.13
2023-05-16T03:42:20.157Z,101367.19
2023-05-16T03:43:13.670Z,101379.38
2023-05-16T03:44:08.121Z,101372.53
2023-05-16T03:44:59.562Z,101375.09
2023-05-16T03:45:51.131Z,101377.69
2023-05-16T03:46:42.719Z,101375.09
2023-05-16T03:47:34.600Z,101379.38
2023-05-16T03:48:26.097Z,101378.56
2023-05-16T03:49:17.826Z,101380.53
2023-05-16T03:50:09.925Z,101380.28
2023-05-16T03:51:01.309Z,101385.63
2023-05-16T03:51:52.695Z,101391.47
2023-05-16T03:52:44.442Z,101395.72
2023-05-16T03:53:37.484Z,101386.84
2023-05-16T03:54:29.168Z,101390.41
2023-05-16T03:55:21.534Z,101391.91
2023-05-16T03:56:13.283Z,101388.41
2023-05-16T03:57:04.904Z,101397.00
2023-05-16T03:57:56.995Z,101396.97
2023-05-16T03:58:48.708Z,101392.53
2023-05-16T03:59:43.085Z,101397.56
2023-05-16T04:00:36.759Z,101396.75
2023-05-16T04:01:28.184Z,101414.13
2023-05-16T04:02:19.580Z,101403.44
2023-05-16T04:03:11.361Z,101411.22
2023-05-16T04:04:02.869Z,101414.78
2023-05-16T04:04:55.428Z,101413.03
2023-05-16T04:05:47.580Z,101407.72
2023-05-16T04:06:39.087Z,101412.88
2023-05-16T04:07:30.880Z,101410.19
2023-05-16T04:08:22.361Z,101411.84
2023-05-16T04:09:14.098Z,101409.13
2023-05-16T04:10:06.904Z,101409.06
2023-05-16T04:11:00.816Z,101409.13
2023-05-16T04:11:52.200Z,101409.94
2023-05-16T04:12:44.765Z,101419.44
2023-05-16T04:13:36.786Z,101409.94
2023-05-16T04:14:28.295Z,101416.88
2023-05-16T04:15:19.765Z,101414.03
2023-05-16T04:16:13.266Z,101412.25
2023-05-16T04:17:05.215Z,101415.88
2023-05-16T04:17:57.071Z,101415.13
2023-05-16T04:18:48.709Z,101424.53
2023-05-16T04:19:42.835Z,101421.88
2023-05-16T04:20:35.094Z,101422.75
2023-05-16T04:21:27.538Z,101414.94
2023-05-16T04:22:21.383Z,101420.84
2023-05-16T04:23:13.025Z,101420.03
2023-05-16T04:24:04.810Z,101424.41
2023-05-16T04:24:57.192Z,101423.56
2023-05-16T04:25:48.576Z,101430.41
2023-05-16T04:26:39.980Z,101421.59
2023-05-16T04:27:31.536Z,101417.56
2023-05-16T04:28:23.108Z,101414.94
2023-05-16T04:29:14.658Z,101424.47
2023-05-16T04:30:09.038Z,101424.41
2023-05-16T04:31:01.153Z,101430.47
2023-05-16T04:31:52.751Z,101433.06
2023-05-16T04:32:47.009Z,101432.09
2023-05-16T04:33:38.458Z,101438.03
2023-05-16T04:34:30.634Z,101432.03
2023-05-16T04:35:22.287Z,101440.84
2023-05-16T04:36:13.795Z,101439.22
2023-05-16T04:37:08.521Z,101441.72
2023-05-16T04:38:00.067Z,101446.69
2023-05-16T04:38:52.628Z,101444.84
2023-05-16T04:39:47.615Z,101446.41
2023-05-16T04:40:46.228Z,101441.91
2023-05-16T04:41:37.712Z,101451.44
2023-05-16T04:42:31.460Z,101455.78
2023-05-16T04:43:23.021Z,101450.44
2023-05-16T04:44:14.467Z,101451.19
2023-05-16T04:45:08.690Z,101450.22
2023-05-16T04:46:00.400Z,101454.69
2023-05-16T04:46:53.320Z,101452.81
2023-05-16T04:47:44.848Z,101457.03
2023-05-16T04:48:36.250Z,101457.03
2023-05-16T04:49:27.725Z,101465.19
2023-05-16T04:50:19.174Z,101458.94
2023-05-16T04:51:12.173Z,101460.31
2023-05-16T04:52:03.871Z,101465.44
2023-05-16T04:52:56.492Z,101463.53
2023-05-16T04:53:48.837Z,101468.50
2023-05-16T04:54:40.358Z,101466.59
2023-05-16T04:55:32.098Z,101468.72
2023-05-16T04:56:25.937Z,101474.59
2023-05-16T04:57:17.665Z,101477.31
2023-05-16T04:58:09.236Z,101468.59
2023-05-16T04:59:00.977Z,101478.03
2023-05-16T04:59:52.792Z,101474.63
2023-05-16T05:00:44.192Z,101479.75
2023-05-16T05:01:35.765Z,101486.50
2023-05-16T05:02:27.445Z,101480.28
2023-05-16T05:03:19.047Z,101480.22
2023-05-16T05:04:10.792Z,101483.75
2023-05-16T05:05:02.277Z,101485.41
2023-05-16T05:05:54.338Z,101487.09
2023-05-16T05:06:45.802Z,101494.84
2023-05-16T05:07:37.285Z,101492.94
2023-05-16T05:08:28.732Z,101501.63
2023-05-16T05:09:20.546Z,101487.72
2023-05-16T05:10:12.219Z,101493.72
2023-05-16T05:11:03.737Z,101503.16
2023-05-16T05:11:55.367Z,101498.66
2023-05-16T05:12:47.026Z,101502.16
2023-05-16T05:13:38.506Z,101503.31
2023-05-16T05:14:29.964Z,101510.19
2023-05-16T05:15:21.475Z,101501.38
2023-05-16T05:16:13.553Z,101494.56
2023-05-16T05:17:05.241Z,101497.94
2023-05-16T05:17:58.000Z,101503.03
2023-05-16T05:18:49.538Z,101493.41
2023-05-16T05:19:41.097Z,101501.06
2023-05-16T05:20:35.043Z,101507.03
2023-05-16T05:21:26.478Z,101502.59
2023-05-16T05:22:17.893Z,101504.06
2023-05-16T05:23:14.370Z,101506.66
2023-05-16T05:24:08.396Z,101514.28
2023-05-16T05:25:00.140Z,101510.81
2023-05-16T05:25:51.902Z,101514.00
2023-05-16T05:26:43.304Z,101514.81
2023-05-16T05:27:34.695Z,101512.97
2023-05-16T05:28:26.204Z,101519.84
2023-05-16T05:29:17.576Z,101518.94
2023-05-16T05:30:09.741Z,101516.31
2023-05-16T05:31:01.140Z,101518.88
2023-05-16T05:31:52.589Z,101530.06
2023-05-16T05:32:44.331Z,101520.56
2023-05-16T05:33:35.837Z,101518.13
2023-05-16T05:34:27.267Z,101519.75
2023-05-16T05:35:18.675Z,101525.03
2023-05-16T05:36:12.529Z,101525.69
2023-05-16T05:37:04.258Z,101531.84
2023-05-16T05:37:55.689Z,101531.06
2023-05-16T05:38:47.186Z,101536.91
2023-05-16T05:39:38.585Z,101533.66
2023-05-16T05:40:30.397Z,101540.63
2023-05-16T05:41:22.322Z,101537.22
2023-05-16T05:42:13.972Z,101533.00
2023-05-16T05:43:05.886Z,101537.50
2023-05-16T05:43:57.335Z,101533.00
2023-05-16T05:44:48.764Z,101537.50
2023-05-16T05:45:40.448Z,101539.88
2023-05-16T05:46:33.738Z,101541.56
2023-05-16T05:47:25.745Z,101546.09
2023-05-16T05:48:17.519Z,101547.13
2023-05-16T05:49:09.159Z,101551.34
2023-05-16T05:50:03.205Z,101555.63
2023-05-16T05:50:54.839Z,101545.28
2023-05-16T05:51:46.527Z,101546.03
2023-05-16T05:52:38.777Z,101556.81
2023-05-16T05:53:30.490Z,101552.50
2023-05-16T05:54:22.319Z,101553.31
2023-05-16T05:55:13.980Z,101548.16
2023-05-16T05:56:05.696Z,101550.00
2023-05-16T05:56:59.347Z,101548.25
2023-05-16T05:57:50.803Z,101554.59
2023-05-16T05:58:42.342Z,101549.72
2023-05-16T05:59:34.183Z,101552.59
2023-05-16T06:00:26.071Z,101550.53
2023-05-16T06:01:21.220Z,101550.94
2023-05-16T06:02:13.947Z,101561.72
2023-05-16T06:03:05.883Z,101552.72
2023-05-16T06:03:58.188Z,101560.88
2023-05-16T06:04:50.442Z,101558.91
2023-05-16T06:05:42.227Z,101561.91
2023-05-16T06:06:33.811Z,101561.13
2023-05-16T06:07:25.310Z,101563.06
2023-05-16T06:08:16.717Z,101559.72
2023-05-16T06:09:08.302Z,101561.56
2023-05-16T06:10:05.175Z,101567.72
2023-05-16T06:10:56.810Z,101561.63
2023-05-16T06:11:48.460Z,101561.75
2023-05-16T06:12:40.006Z,101569.19
2023-05-16T06:13:31.496Z,101567.75
2023-05-16T06:14:23.327Z,101566.50
2023-05-16T06:15:14.839Z,101565.69
2023-05-16T06:16:08.793Z,101574.47
2023-05-16T06:17:00.974Z,101571.88
2023-05-16T06:17:52.412Z,101576.69
2023-05-16T06:18:44.663Z,101575.03
2023-05-16T06:19:36.077Z,101573.41
2023-05-16T06:20:27.562Z,101580.41
2023-05-16T06:21:19.100Z,101581.06
2023-05-16T06:22:10.603Z,101579.34
2023-05-16T06:23:02.050Z,101573.81
2023-05-16T06:23:53.636Z,101569.44
2023-05-16T06:24:47.263Z,101572.69
2023-05-16T06:25:38.902Z,101570.09
2023-05-16T06:26:30.567Z,101577.84
2023-05-16T06:27:24.149Z,101581.25
2023-05-16T06:28:15.851Z,101583.63
2023-05-16T06:29:07.507Z,101575.94
2023-05-16T06:29:58.896Z,101581.00
2023-05-16T06:30:51.894Z,101576.75
2023-05-16T06:31:43.638Z,101577.75
2023-05-16T06:32:35.247Z,101586.63
2023-05-16T06:33:26.717Z,101589.97
2023-05-16T06:34:18.181Z,101592.63
2023-05-16T06:35:12.033Z,101587.66
2023-05-16T06:36:03.470Z,101590.31
2023-05-16T06:36:55.339Z,101588.97
2023-05-16T06:37:46.774Z,101589.84
2023-05-16T06:38:38.191Z,101592.78
2023-05-16T06:39:29.565Z,101591.03
2023-05-16T06:40:21.091Z,101588.59
2023-05-16T06:41:12.578Z,101600.75
2023-05-16T06:42:04.550Z,101587.81
2023-05-16T06:42:58.455Z,101587.47
2023-05-16T06:43:50.133Z,101591.06
2023-05-16T06:44:43.808Z,101587.75
2023-05-16T06:45:35.456Z,101590.56
2023-05-16T06:46:26.976Z,101587.25
2023-05-16T06:47:18.689Z,101589.84
2023-05-16T06:48:10.221Z,101591.81
2023-05-16T06:49:01.712Z,101590.16
2023-05-16T06:49:53.136Z,101597.56
2023-05-16T06:50:48.999Z,101591.72
2023-05-16T06:51:40.502Z,101597.38
2023-05-16T06:52:32.212Z,101591.63
2023-05-16T06:53:26.249Z,101593.41
2023-05-16T06:54:17.770Z,101591.50
2023-05-16T06:55:09.941Z,101593.50
2023-05-16T06:56:01.713Z,101594.50
2023-05-16T06:56:55.462Z,101600.66
2023-05-16T06:57:46.912Z,101592.13
2023-05-16T06:58:41.051Z,101594.19
2023-05-16T06:59:32.575Z,101604.94
2023-05-16T07:00:24.659Z,101593.72
2023-05-16T07:01:16.475Z,101595.47
2023-05-16T07:02:08.060Z,101599.81
2023-05-16T07:02:59.603Z,101597.09
2023-05-16T07:03:54.023Z,101605.66
2023-05-16T07:04:45.926Z,101593.44
2023-05-16T07:05:37.319Z,101584.94
2023-05-16T07:06:29.844Z,101598.88
2023-05-16T07:07:21.407Z,101596.09
2023-05-16T07:08:12.997Z,101595.94
2023-05-16T07:09:04.713Z,101595.00
2023-05-16T07:09:57.718Z,101604.03
2023-05-16T07:10:49.187Z,101600.28
2023-05-16T07:11:43.128Z,101602.28
2023-05-16T07:12:37.565Z,101604.41
2023-05-16T07:13:28.991Z,101600.19
2023-05-16T07:14:20.434Z,101597.16
2023-05-16T07:15:12.335Z,101602.47
2023-05-16T07:16:04.278Z,101605.16
2023-05-16T07:16:55.913Z,101625.25
2023-05-16T07:17:47.592Z,101603.25
2023-05-16T07:18:39.162Z,101604.69
2023-05-16T07:19:31.870Z,101605.31
2023-05-16T07:20:23.591Z,101604.59
2023-05-16T07:21:15.072Z,101593.59
2023-05-16T07:22:06.750Z,101600.88
2023-05-16T07:23:00.718Z,101601.16
2023-05-16T07:23:52.351Z,101597.06
2023-05-16T07:24:44.266Z,101602.25
2023-05-16T07:25:36.939Z,101595.88
2023-05-16T07:26:31.853Z,101600.56
2023-05-16T07:27:23.805Z,101591.03
2023-05-16T07:28:15.303Z,101593.72
2023-05-16T07:29:06.753Z,101596.22
2023-05-16T07:30:01.072Z,101602.22
2023-05-16T07:30:52.612Z,101596.00
2023-05-16T07:31:45.325Z,101604.03
2023-05-16T07:32:38.945Z,101604.13
2023-05-16T07:33:30.432Z,101603.88
2023-05-16T07:34:24.355Z,101601.09
2023-05-16T07:35:15.771Z,101604.59
2023-05-16T07:36:16.373Z,101604.41
2023-05-16T07:37:12.868Z,101604.59
2023-05-16T07:38:04.456Z,101616.47
2023-05-16T07:38:55.926Z,101610.47
2023-05-16T07:39:47.475Z,101612.78
2023-05-16T07:40:38.936Z,101610.78
2023-05-16T07:41:31.350Z,101611.91
2023-05-16T07:42:22.777Z,101610.78
2023-05-16T07:43:16.683Z,101606.91
2023-05-16T07:44:08.346Z,101614.47
2023-05-16T07:45:02.091Z,101605.97
2023-05-16T07:45:53.896Z,101609.66
2023-05-16T07:46:49.198Z,101612.53
2023-05-16T07:47:41.200Z,101614.81
2023-05-16T07:48:33.888Z,101607.53
2023-05-16T07:49:25.429Z,101609.75
2023-05-16T07:50:16.875Z,101609.91
2023-05-16T07:51:10.165Z,101602.50
2023-05-16T07:52:01.687Z,101608.25
2023-05-16T07:52:55.429Z,101611.00
2023-05-16T07:53:52.182Z,101610.72
2023-05-16T07:54:43.743Z,101602.94
2023-05-16T07:55:35.437Z,101612.44
2023-05-16T07:56:26.982Z,101610.50
2023-05-16T07:57:18.804Z,101615.69
2023-05-16T07:58:10.665Z,101611.44
2023-05-16T07:59:02.319Z,101621.34
2023-05-16T07:59:56.191Z,101612.38
2023-05-16T08:00:47.910Z,101611.53
2023-05-16T08:01:39.572Z,101608.59
2023-05-16T08:02:31.560Z,101602.69
2023-05-16T08:03:23.617Z,101617.97
2023-05-16T08:04:15.496Z,101603.34
2023-05-16T08:05:08.997Z,101610.81
2023-05-16T08:06:00.756Z,101611.06
2023-05-16T08:06:52.335Z,101616.13
2023-05-16T08:07:44.021Z,101611.09
2023-05-16T08:08:35.701Z,101610.91
2023-05-16T08:09:27.126Z,101617.69
2023-05-16T08:10:18.776Z,101621.53
2023-05-16T08:11:11.241Z,101619.75
2023-05-16T08:12:03.820Z,101613.81
2023-05-16T08:12:55.720Z,101611.91
2023-05-16T08:13:47.309Z,101619.53
2023-05-16T08:14:38.982Z,101614.03
2023-05-16T08:15:30.745Z,101619.16
2023-05-16T08:16:23.854Z,101614.53
2023-05-16T08:17:15.482Z,101618.72
2023-05-16T08:18:14.640Z,101611.53
2023-05-16T08:19:06.949Z,101617.41
2023-05-16T08:20:01.817Z,101613.66
2023-05-16T08:20:53.327Z,101621.19
2023-05-16T08:21:45.032Z,101625.56
2023-05-16T08:22:36.603Z,101626.47
2023-05-16T08:23:30.735Z,101617.09
2023-05-16T08:24:22.401Z,101617.28
2023-05-16T08:25:13.960Z,101619.09
2023-05-16T08:26:05.448Z,101607.22
2023-05-16T08:26:59.525Z,101612.88
2023-05-16T08:27:51.520Z,101617.69
2023-05-16T08:28:45.116Z,101612.63
2023-05-16T08:29:36.613Z,101619.97
2023-05-16T08:30:28.544Z,101611.91
2023-05-16T08:31:20.156Z,101612.38
2023-05-16T08:32:12.040Z,101614.38
2023-05-16T08:33:05.301Z,101609.28
2023-05-16T08:33:58.208Z,101614.50
2023-05-16T08:34:49.915Z,101611.78
2023-05-16T08:35:47.325Z,101615.41
2023-05-16T08:36:39.007Z,101621.41
2023-05-16T08:37:30.698Z,101618.53
2023-05-16T08:38:22.237Z,101617.94
2023-05-16T08:39:13.760Z,101610.41
2023-05-16T08:40:09.358Z,101614.50
2023-05-16T08:41:01.378Z,101616.13
2023-05-16T08:41:53.229Z,101616.03
2023-05-16T08:42:45.454Z,101622.41
2023-05-16T08:43:37.500Z,101625.06
2023-05-16T08:44:29.449Z,101617.38
2023-05-16T08:45:23.669Z,101628.81
2023-05-16T08:46:23.384Z,101618.31
2023-05-16T08:47:25.462Z,101613.56
2023-05-16T08:48:23.681Z,101624.56
2023-05-16T08:49:19.220Z,101616.03
2023-05-16T08:50:11.685Z,101620.09
2023-05-16T08:51:09.473Z,101614.72
2023-05-16T08:52:05.901Z,101620.94
2023-05-16T08:53:01.844Z,101627.28
2023-05-16T08:54:00.866Z,101614.81
2023-05-16T08:55:09.273Z,101611.75
2023-05-16T08:56:04.222Z,101612.63
2023-05-16T08:56:57.638Z,101618.72
2023-05-16T08:57:51.473Z,101612.75
2023-05-16T08:58:44.105Z,101620.84
2023-05-16T08:59:36.289Z,101622.75
2023-05-16T09:00:28.654Z,101615.13
2023-05-16T09:01:22.851Z,101614.09
2023-05-16T09:02:15.367Z,101608.06
2023-05-16T09:03:06.988Z,101606.28
2023-05-16T09:04:00.214Z,101604.78
2023-05-16T09:04:53.102Z,101607.84
2023-05-16T09:05:44.741Z,101608.94
2023-05-16T09:06:37.568Z,101601.50
2023-05-16T09:07:29.637Z,101599.94
2023-05-16T09:08:21.218Z,101603.78
2023-05-16T09:09:12.979Z,101603.03
2023-05-16T09:10:06.881Z,101610.63
2023-05-16T09:10:58.468Z,101612.97
2023-05-16T09:11:52.603Z,101610.13
2023-05-16T09:12:46.766Z,101606.97
2023-05-16T09:13:41.392Z,101601.69
2023-05-16T09:14:32.921Z,101608.06
2023-05-16T09:15:32.546Z,101608.78
2023-05-16T09:16:24.541Z,101611.13
2023-05-16T09:17:18.619Z,101617.00
2023-05-16T09:18:14.547Z,101609.28
2023-05-16T09:19:08.452Z,101608.69
2023-05-16T09:19:59.896Z,101605.50
2023-05-16T09:20:53.550Z,101610.22
2023-05-16T09:21:45.459Z,101607.75
2023-05-16T09:22:38.042Z,101612.59
2023-05-16T09:23:29.976Z,101608.66
2023-05-16T09:24:26.171Z,101598.88
2023-05-16T09:25:28.482Z,101606.28
2023-05-16T09:26:22.594Z,101595.50
2023-05-16T09:27:16.649Z,101607.22
2023-05-16T09:28:12.226Z,101613.06
2023-05-16T09:29:13.760Z,101608.59
2023-05-16T09:30:05.710Z,101614.53
2023-05-16T09:30:59.834Z,101617.34
2023-05-16T09:31:51.741Z,101607.38
2023-05-16T09:32:45.145Z,101603.28
2023-05-16T09:33:37.885Z,101603.34
2023-05-16T09:34:31.755Z,101611.91
2023-05-16T09:35:44.898Z,101607.59
2023-05-16T09:36:37.600Z,101611.81
2023-05-16T09:37:30.677Z,101606.53
2023-05-16T09:38:22.368Z,101607.69
2023-05-16T09:39:17.655Z,101609.38
2023-05-16T09:40:10.505Z,101611.28
2023-05-16T09:41:02.387Z,101607.97
2023-05-16T09:41:53.946Z,101607.47
2023-05-16T09:42:46.279Z,101610.38
2023-05-16T09:43:42.965Z,101613.28
2023-05-16T09:44:34.793Z,101597.19
2023-05-16T09:45:26.698Z,101614.69
2023-05-16T09:46:20.023Z,101625.59
2023-05-16T09:47:15.612Z,101605.03
2023-05-16T09:48:10.263Z,101608.63
2023-05-16T09:49:02.794Z,101607.56
2023-05-16T09:49:55.045Z,101610.09
2023-05-16T09:50:52.201Z,101606.34
2023-05-16T09:51:43.733Z,101611.56
2023-05-16T09:52:35.276Z,101618.66
2023-05-16T09:53:30.861Z,101612.41
2023-05-16T09:54:33.993Z,101618.78
2023-05-16T09:55:25.766Z,101610.88
2023-05-16T09:56:17.466Z,101612.56
2023-05-16T09:57:09.147Z,101606.69
2023-05-16T09:58:01.268Z,101603.19
2023-05-16T09:58:52.798Z,101605.56
2023-05-16T09:59:45.891Z,101612.38
2023-05-16T10:00:38.608Z,101610.16
2023-05-16T10:01:30.733Z,101620.59
2023-05-16T10:02:23.441Z,101612.97
2023-05-16T10:03:15.635Z,101616.66
2023-05-16T10:04:10.580Z,101617.56
2023-05-16T10:05:04.609Z,101614.34
2023-05-16T10:05:56.385Z,101621.34
2023-05-16T10:06:52.636Z,101619.56
2023-05-16T10:07:47.441Z,101609.25
2023-05-16T10:08:43.698Z,101624.22